sensor_id;sensor_type;location;lat;lon;timestamp;P1;durP1;ratioP1;P2;durP2;ratioP2
18544;SDS011;9402;51.460;7.276;2023-03-19T00:01:30;6.93;;;2.70;;
18544;SDS011;9402;51.460;7.276;2023-03-19T00:03:33;6.97;;;2.63;;
18544;SDS011;9402;51.460;7.276;2023-03-19T00:05:37;11.20;;;2.37;;
18544;SDS011;9402;51.460;7.276;2023-03-19T00:07:39;7.30;;;2.30;;
18544;SDS011;9402;51.460;7.276;2023-03-19T00:09:42;7.23;;;2.73;;
18544;SDS011;9402;51.460;7.276;2023-03-19T00:11:47;5.53;;;2.10;;
18544;SDS011;9402;51.460;7.276;2023-03-19T00:13:50;8.60;;;2.37;;
18544;SDS011;9402;51.460;7.276;2023-03-19T00:15:52;11.83;;;2.80;;
18544;SDS011;9402;51.460;7.276;2023-03-19T00:17:54;5.80;;;2.30;;
18544;SDS011;9402;51.460;7.276;2023-03-19T00:19:57;10.73;;;2.97;;
18544;SDS011;9402;51.460;7.276;2023-03-19T00:22:00;7.83;;;2.40;;
18544;SDS011;9402;51.460;7.276;2023-03-19T00:24:03;10.00;;;2.90;;
18544;SDS011;9402;51.460;7.276;2023-03-19T00:26:06;7.57;;;2.80;;
18544;SDS011;9402;51.460;7.276;2023-03-19T00:28:08;10.00;;;3.23;;
18544;SDS011;9402;51.460;7.276;2023-03-19T00:30:11;6.20;;;2.70;;
18544;SDS011;9402;51.460;7.276;2023-03-19T00:32:14;9.70;;;3.57;;
18544;SDS011;9402;51.460;7.276;2023-03-19T00:34:16;8.30;;;2.53;;
18544;SDS011;9402;51.460;7.276;2023-03-19T00:36:19;10.93;;;3.00;;
18544;SDS011;9402;51.460;7.276;2023-03-19T00:38:23;6.60;;;3.50;;
18544;SDS011;9402;51.460;7.276;2023-03-19T00:40:26;4.53;;;2.13;;
18544;SDS011;9402;51.460;7.276;2023-03-19T00:42:28;8.60;;;3.60;;
18544;SDS011;9402;51.460;7.276;2023-03-19T00:44:31;7.53;;;2.90;;
18544;SDS011;9402;51.460;7.276;2023-03-19T00:46:33;10.23;;;3.23;;
18544;SDS011;9402;51.460;7.276;2023-03-19T00:48:35;8.53;;;2.70;;
18544;SDS011;9402;51.460;7.276;2023-03-19T00:50:38;9.90;;;2.80;;
18544;SDS011;9402;51.460;7.276;2023-03-19T00:52:40;9.00;;;2.70;;
18544;SDS011;9402;51.460;7.276;2023-03-19T00:54:44;9.23;;;2.90;;
18544;SDS011;9402;51.460;7.276;2023-03-19T00:56:46;8.77;;;2.20;;
18544;SDS011;9402;51.460;7.276;2023-03-19T00:58:48;7.20;;;2.80;;
18544;SDS011;9402;51.460;7.276;2023-03-19T01:00:51;13.60;;;3.30;;
18544;SDS011;9402;51.460;7.276;2023-03-19T01:02:53;6.70;;;2.40;;
18544;SDS011;9402;51.460;7.276;2023-03-19T01:04:56;5.43;;;2.30;;
18544;SDS011;9402;51.460;7.276;2023-03-19T01:06:58;5.30;;;2.67;;
18544;SDS011;9402;51.460;7.276;2023-03-19T01:09:00;5.20;;;2.50;;
18544;SDS011;9402;51.460;7.276;2023-03-19T01:11:05;13.30;;;4.30;;
18544;SDS011;9402;51.460;7.276;2023-03-19T01:13:08;11.53;;;3.10;;
18544;SDS011;9402;51.460;7.276;2023-03-19T01:15:11;7.93;;;3.13;;
18544;SDS011;9402;51.460;7.276;2023-03-19T01:17:13;11.67;;;3.67;;
18544;SDS011;9402;51.460;7.276;2023-03-19T01:19:16;10.47;;;2.97;;
18544;SDS011;9402;51.460;7.276;2023-03-19T01:21:19;9.97;;;3.00;;
18544;SDS011;9402;51.460;7.276;2023-03-19T01:23:21;9.53;;;3.50;;
18544;SDS011;9402;51.460;7.276;2023-03-19T01:25:23;9.40;;;3.60;;
18544;SDS011;9402;51.460;7.276;2023-03-19T01:27:27;13.40;;;4.40;;
18544;SDS011;9402;51.460;7.276;2023-03-19T01:29:29;11.03;;;4.10;;
18544;SDS011;9402;51.460;7.276;2023-03-19T01:31:32;7.97;;;3.60;;
18544;SDS011;9402;51.460;7.276;2023-03-19T01:33:34;11.17;;;3.40;;
18544;SDS011;9402;51.460;7.276;2023-03-19T01:35:37;20.40;;;4.23;;
18544;SDS011;9402;51.460;7.276;2023-03-19T01:37:40;9.27;;;4.27;;
18544;SDS011;9402;51.460;7.276;2023-03-19T01:39:42;10.97;;;3.60;;
18544;SDS011;9402;51.460;7.276;2023-03-19T01:41:45;8.50;;;4.07;;
18544;SDS011;9402;51.460;7.276;2023-03-19T01:43:49;5.93;;;2.70;;
18544;SDS011;9402;51.460;7.276;2023-03-19T01:45:51;7.90;;;3.80;;
18544;SDS011;9402;51.460;7.276;2023-03-19T01:47:57;7.40;;;3.40;;
18544;SDS011;9402;51.460;7.276;2023-03-19T01:49:59;7.33;;;3.10;;
18544;SDS011;9402;51.460;7.276;2023-03-19T01:52:02;8.40;;;3.77;;
18544;SDS011;9402;51.460;7.276;2023-03-19T01:54:07;8.63;;;3.60;;
18544;SDS011;9402;51.460;7.276;2023-03-19T01:56:13;9.73;;;4.03;;
18544;SDS011;9402;51.460;7.276;2023-03-19T01:58:17;7.10;;;3.20;;
18544;SDS011;9402;51.460;7.276;2023-03-19T02:00:21;8.73;;;3.97;;
18544;SDS011;9402;51.460;7.276;2023-03-19T02:02:24;11.73;;;4.30;;
18544;SDS011;9402;51.460;7.276;2023-03-19T02:04:30;9.43;;;4.10;;
18544;SDS011;9402;51.460;7.276;2023-03-19T02:06:34;12.83;;;3.80;;
18544;SDS011;9402;51.460;7.276;2023-03-19T02:08:37;10.97;;;4.33;;
18544;SDS011;9402;51.460;7.276;2023-03-19T02:10:40;6.70;;;3.60;;
18544;SDS011;9402;51.460;7.276;2023-03-19T02:12:43;8.30;;;4.10;;
18544;SDS011;9402;51.460;7.276;2023-03-19T02:14:46;7.67;;;3.47;;
18544;SDS011;9402;51.460;7.276;2023-03-19T02:16:49;9.40;;;3.67;;
18544;SDS011;9402;51.460;7.276;2023-03-19T02:18:52;30.13;;;4.70;;
18544;SDS011;9402;51.460;7.276;2023-03-19T02:20:56;8.90;;;3.77;;
18544;SDS011;9402;51.460;7.276;2023-03-19T02:23:03;11.97;;;4.00;;
18544;SDS011;9402;51.460;7.276;2023-03-19T02:25:10;12.33;;;4.33;;
18544;SDS011;9402;51.460;7.276;2023-03-19T02:27:16;7.80;;;3.67;;
18544;SDS011;9402;51.460;7.276;2023-03-19T02:29:19;10.37;;;4.10;;
18544;SDS011;9402;51.460;7.276;2023-03-19T02:31:21;13.30;;;4.20;;
18544;SDS011;9402;51.460;7.276;2023-03-19T02:33:24;9.83;;;4.37;;
18544;SDS011;9402;51.460;7.276;2023-03-19T02:35:26;10.53;;;4.50;;
18544;SDS011;9402;51.460;7.276;2023-03-19T02:37:31;10.37;;;4.50;;
18544;SDS011;9402;51.460;7.276;2023-03-19T02:39:35;10.63;;;4.67;;
18544;SDS011;9402;51.460;7.276;2023-03-19T02:41:42;13.87;;;4.43;;
18544;SDS011;9402;51.460;7.276;2023-03-19T02:43:46;9.20;;;4.07;;
18544;SDS011;9402;51.460;7.276;2023-03-19T02:45:49;12.73;;;4.43;;
18544;SDS011;9402;51.460;7.276;2023-03-19T02:47:51;9.30;;;4.50;;
18544;SDS011;9402;51.460;7.276;2023-03-19T02:49:53;7.20;;;3.60;;
18544;SDS011;9402;51.460;7.276;2023-03-19T02:51:56;8.10;;;3.80;;
18544;SDS011;9402;51.460;7.276;2023-03-19T02:53:58;8.63;;;3.23;;
18544;SDS011;9402;51.460;7.276;2023-03-19T02:56:00;13.07;;;3.80;;
18544;SDS011;9402;51.460;7.276;2023-03-19T02:58:03;7.33;;;3.80;;
18544;SDS011;9402;51.460;7.276;2023-03-19T03:00:08;9.70;;;3.43;;
18544;SDS011;9402;51.460;7.276;2023-03-19T03:02:11;6.70;;;3.37;;
18544;SDS011;9402;51.460;7.276;2023-03-19T03:04:14;14.97;;;3.30;;
18544;SDS011;9402;51.460;7.276;2023-03-19T03:06:16;8.13;;;3.67;;
18544;SDS011;9402;51.460;7.276;2023-03-19T03:08:18;16.00;;;3.83;;
18544;SDS011;9402;51.460;7.276;2023-03-19T03:10:21;8.93;;;3.70;;
18544;SDS011;9402;51.460;7.276;2023-03-19T03:12:23;6.80;;;2.87;;
18544;SDS011;9402;51.460;7.276;2023-03-19T03:14:26;7.77;;;3.33;;
18544;SDS011;9402;51.460;7.276;2023-03-19T03:16:30;9.80;;;2.80;;
18544;SDS011;9402;51.460;7.276;2023-03-19T03:18:32;7.53;;;3.58;;
18544;SDS011;9402;51.460;7.276;2023-03-19T03:20:35;8.30;;;4.13;;
18544;SDS011;9402;51.460;7.276;2023-03-19T03:22:37;9.60;;;3.40;;
18544;SDS011;9402;51.460;7.276;2023-03-19T03:24:40;5.30;;;2.93;;
18544;SDS011;9402;51.460;7.276;2023-03-19T03:26:42;8.77;;;3.87;;
18544;SDS011;9402;51.460;7.276;2023-03-19T03:28:45;6.63;;;3.07;;
18544;SDS011;9402;51.460;7.276;2023-03-19T03:30:47;7.53;;;3.17;;
18544;SDS011;9402;51.460;7.276;2023-03-19T03:32:51;9.73;;;4.00;;
18544;SDS011;9402;51.460;7.276;2023-03-19T03:34:53;6.70;;;3.67;;
18544;SDS011;9402;51.460;7.276;2023-03-19T03:36:56;7.63;;;2.93;;
18544;SDS011;9402;51.460;7.276;2023-03-19T03:38:58;9.17;;;3.80;;
18544;SDS011;9402;51.460;7.276;2023-03-19T03:41:00;7.60;;;3.13;;
18544;SDS011;9402;51.460;7.276;2023-03-19T03:43:03;9.30;;;3.33;;
18544;SDS011;9402;51.460;7.276;2023-03-19T03:45:06;5.57;;;2.53;;
18544;SDS011;9402;51.460;7.276;2023-03-19T03:47:09;8.40;;;2.37;;
18544;SDS011;9402;51.460;7.276;2023-03-19T03:49:14;7.57;;;2.43;;
18544;SDS011;9402;51.460;7.276;2023-03-19T03:51:16;16.73;;;3.00;;
18544;SDS011;9402;51.460;7.276;2023-03-19T03:53:19;7.50;;;2.97;;
18544;SDS011;9402;51.460;7.276;2023-03-19T03:55:21;5.93;;;2.40;;
18544;SDS011;9402;51.460;7.276;2023-03-19T03:57:24;6.00;;;2.63;;
18544;SDS011;9402;51.460;7.276;2023-03-19T03:59:27;7.37;;;2.83;;
18544;SDS011;9402;51.460;7.276;2023-03-19T04:01:29;7.03;;;2.40;;
18544;SDS011;9402;51.460;7.276;2023-03-19T04:03:32;7.97;;;2.10;;
18544;SDS011;9402;51.460;7.276;2023-03-19T04:05:35;7.27;;;2.70;;
18544;SDS011;9402;51.460;7.276;2023-03-19T04:07:38;5.90;;;2.20;;
18544;SDS011;9402;51.460;7.276;2023-03-19T04:09:40;10.43;;;2.53;;
18544;SDS011;9402;51.460;7.276;2023-03-19T04:11:42;5.60;;;2.23;;
18544;SDS011;9402;51.460;7.276;2023-03-19T04:13:45;6.73;;;2.20;;
18544;SDS011;9402;51.460;7.276;2023-03-19T04:15:47;6.30;;;2.13;;
18544;SDS011;9402;51.460;7.276;2023-03-19T04:17:50;8.23;;;2.27;;
18544;SDS011;9402;51.460;7.276;2023-03-19T04:19:52;7.00;;;2.67;;
18544;SDS011;9402;51.460;7.276;2023-03-19T04:21:56;6.03;;;2.37;;
18544;SDS011;9402;51.460;7.276;2023-03-19T04:23:58;6.00;;;2.23;;
18544;SDS011;9402;51.460;7.276;2023-03-19T04:26:01;6.93;;;2.07;;
18544;SDS011;9402;51.460;7.276;2023-03-19T04:28:06;6.40;;;2.60;;
18544;SDS011;9402;51.460;7.276;2023-03-19T04:30:09;7.47;;;2.30;;
18544;SDS011;9402;51.460;7.276;2023-03-19T04:32:12;7.40;;;2.40;;
18544;SDS011;9402;51.460;7.276;2023-03-19T04:34:15;8.07;;;2.47;;
18544;SDS011;9402;51.460;7.276;2023-03-19T04:36:18;5.00;;;2.07;;
18544;SDS011;9402;51.460;7.276;2023-03-19T04:38:23;5.27;;;2.40;;
18544;SDS011;9402;51.460;7.276;2023-03-19T04:40:26;5.37;;;2.27;;
18544;SDS011;9402;51.460;7.276;2023-03-19T04:42:29;10.60;;;2.17;;
18544;SDS011;9402;51.460;7.276;2023-03-19T04:44:31;7.43;;;2.30;;
18544;SDS011;9402;51.460;7.276;2023-03-19T04:46:34;8.10;;;2.23;;
18544;SDS011;9402;51.460;7.276;2023-03-19T04:48:36;6.70;;;2.23;;
18544;SDS011;9402;51.460;7.276;2023-03-19T04:50:39;7.83;;;2.20;;
18544;SDS011;9402;51.460;7.276;2023-03-19T04:52:41;16.40;;;2.73;;
18544;SDS011;9402;51.460;7.276;2023-03-19T04:54:45;4.80;;;2.03;;
18544;SDS011;9402;51.460;7.276;2023-03-19T04:56:47;7.70;;;2.70;;
18544;SDS011;9402;51.460;7.276;2023-03-19T04:58:50;7.40;;;2.20;;
18544;SDS011;9402;51.460;7.276;2023-03-19T05:00:52;6.13;;;2.10;;
18544;SDS011;9402;51.460;7.276;2023-03-19T05:02:55;8.37;;;3.03;;
18544;SDS011;9402;51.460;7.276;2023-03-19T05:04:57;4.90;;;1.80;;
18544;SDS011;9402;51.460;7.276;2023-03-19T05:06:59;21.87;;;2.27;;
18544;SDS011;9402;51.460;7.276;2023-03-19T05:09:02;4.80;;;2.30;;
18544;SDS011;9402;51.460;7.276;2023-03-19T05:11:06;7.10;;;2.10;;
18544;SDS011;9402;51.460;7.276;2023-03-19T05:13:09;10.10;;;2.13;;
18544;SDS011;9402;51.460;7.276;2023-03-19T05:15:11;5.50;;;2.13;;
18544;SDS011;9402;51.460;7.276;2023-03-19T05:17:14;5.30;;;1.80;;
18544;SDS011;9402;51.460;7.276;2023-03-19T05:19:16;5.67;;;2.03;;
18544;SDS011;9402;51.460;7.276;2023-03-19T05:21:19;9.90;;;2.03;;
18544;SDS011;9402;51.460;7.276;2023-03-19T05:23:21;5.20;;;1.80;;
18544;SDS011;9402;51.460;7.276;2023-03-19T05:25:23;4.47;;;1.70;;
18544;SDS011;9402;51.460;7.276;2023-03-19T05:27:27;5.57;;;1.83;;
18544;SDS011;9402;51.460;7.276;2023-03-19T05:29:29;7.00;;;2.10;;
18544;SDS011;9402;51.460;7.276;2023-03-19T05:31:32;5.20;;;2.03;;
18544;SDS011;9402;51.460;7.276;2023-03-19T05:33:34;5.30;;;1.77;;
18544;SDS011;9402;51.460;7.276;2023-03-19T05:35:37;5.33;;;1.80;;
18544;SDS011;9402;51.460;7.276;2023-03-19T05:37:39;4.10;;;1.97;;
18544;SDS011;9402;51.460;7.276;2023-03-19T05:39:41;4.60;;;2.30;;
18544;SDS011;9402;51.460;7.276;2023-03-19T05:41:44;4.23;;;1.90;;
18544;SDS011;9402;51.460;7.276;2023-03-19T05:43:48;7.27;;;2.03;;
18544;SDS011;9402;51.460;7.276;2023-03-19T05:45:50;4.70;;;1.80;;
18544;SDS011;9402;51.460;7.276;2023-03-19T05:47:52;4.83;;;2.00;;
18544;SDS011;9402;51.460;7.276;2023-03-19T05:49:55;6.30;;;2.33;;
18544;SDS011;9402;51.460;7.276;2023-03-19T05:51:58;6.33;;;2.40;;
18544;SDS011;9402;51.460;7.276;2023-03-19T05:54:00;5.70;;;1.93;;
18544;SDS011;9402;51.460;7.276;2023-03-19T05:56:03;10.43;;;1.90;;
18544;SDS011;9402;51.460;7.276;2023-03-19T05:58:05;5.93;;;1.97;;
18544;SDS011;9402;51.460;7.276;2023-03-19T06:00:10;11.20;;;2.60;;
18544;SDS011;9402;51.460;7.276;2023-03-19T06:02:14;6.10;;;2.07;;
18544;SDS011;9402;51.460;7.276;2023-03-19T06:04:16;4.17;;;1.53;;
18544;SDS011;9402;51.460;7.276;2023-03-19T06:06:18;8.67;;;2.70;;
18544;SDS011;9402;51.460;7.276;2023-03-19T06:08:21;7.10;;;2.13;;
18544;SDS011;9402;51.460;7.276;2023-03-19T06:10:23;8.90;;;2.50;;
18544;SDS011;9402;51.460;7.276;2023-03-19T06:12:26;4.27;;;1.83;;
18544;SDS011;9402;51.460;7.276;2023-03-19T06:14:28;4.70;;;1.90;;
18544;SDS011;9402;51.460;7.276;2023-03-19T06:16:32;5.00;;;2.23;;
18544;SDS011;9402;51.460;7.276;2023-03-19T06:18:35;7.43;;;2.47;;
18544;SDS011;9402;51.460;7.276;2023-03-19T06:20:37;5.57;;;2.10;;
18544;SDS011;9402;51.460;7.276;2023-03-19T06:22:40;5.63;;;2.23;;
18544;SDS011;9402;51.460;7.276;2023-03-19T06:24:42;6.90;;;1.80;;
18544;SDS011;9402;51.460;7.276;2023-03-19T06:26:45;6.70;;;2.13;;
18544;SDS011;9402;51.460;7.276;2023-03-19T06:28:47;9.83;;;2.70;;
18544;SDS011;9402;51.460;7.276;2023-03-19T06:30:49;9.53;;;2.50;;
18544;SDS011;9402;51.460;7.276;2023-03-19T06:32:55;4.87;;;2.57;;
18544;SDS011;9402;51.460;7.276;2023-03-19T06:34:57;7.10;;;2.50;;
18544;SDS011;9402;51.460;7.276;2023-03-19T06:37:00;14.50;;;2.60;;
18544;SDS011;9402;51.460;7.276;2023-03-19T06:39:02;6.70;;;2.33;;
18544;SDS011;9402;51.460;7.276;2023-03-19T06:41:05;5.83;;;2.53;;
18544;SDS011;9402;51.460;7.276;2023-03-19T06:43:07;5.87;;;2.50;;
18544;SDS011;9402;51.460;7.276;2023-03-19T06:45:10;8.10;;;2.80;;
18544;SDS011;9402;51.460;7.276;2023-03-19T06:47:14;3.90;;;2.13;;
18544;SDS011;9402;51.460;7.276;2023-03-19T06:49:18;10.00;;;2.67;;
18544;SDS011;9402;51.460;7.276;2023-03-19T06:51:21;10.70;;;2.83;;
18544;SDS011;9402;51.460;7.276;2023-03-19T06:53:23;11.07;;;3.03;;
18544;SDS011;9402;51.460;7.276;2023-03-19T06:55:25;7.73;;;3.03;;
18544;SDS011;9402;51.460;7.276;2023-03-19T06:57:29;5.27;;;2.53;;
18544;SDS011;9402;51.460;7.276;2023-03-19T06:59:32;11.57;;;3.00;;
18544;SDS011;9402;51.460;7.276;2023-03-19T07:01:35;7.47;;;2.50;;
18544;SDS011;9402;51.460;7.276;2023-03-19T07:03:37;9.03;;;2.83;;
18544;SDS011;9402;51.460;7.276;2023-03-19T07:05:41;5.10;;;2.27;;
18544;SDS011;9402;51.460;7.276;2023-03-19T07:07:43;6.10;;;2.13;;
18544;SDS011;9402;51.460;7.276;2023-03-19T07:09:45;6.80;;;2.50;;
18544;SDS011;9402;51.460;7.276;2023-03-19T07:11:48;7.57;;;2.90;;
18544;SDS011;9402;51.460;7.276;2023-03-19T07:13:50;6.37;;;2.33;;
18544;SDS011;9402;51.460;7.276;2023-03-19T07:15:52;6.67;;;2.67;;
18544;SDS011;9402;51.460;7.276;2023-03-19T07:17:55;5.37;;;2.83;;
18544;SDS011;9402;51.460;7.276;2023-03-19T07:19:57;5.80;;;2.73;;
18544;SDS011;9402;51.460;7.276;2023-03-19T07:22:01;7.73;;;2.73;;
18544;SDS011;9402;51.460;7.276;2023-03-19T07:24:04;6.67;;;2.40;;
18544;SDS011;9402;51.460;7.276;2023-03-19T07:26:06;7.23;;;2.80;;
18544;SDS011;9402;51.460;7.276;2023-03-19T07:28:08;5.23;;;2.63;;
18544;SDS011;9402;51.460;7.276;2023-03-19T07:30:11;5.73;;;2.80;;
18544;SDS011;9402;51.460;7.276;2023-03-19T07:32:14;4.70;;;2.40;;
18544;SDS011;9402;51.460;7.276;2023-03-19T07:34:17;8.03;;;3.20;;
18544;SDS011;9402;51.460;7.276;2023-03-19T07:36:19;5.53;;;2.63;;
18544;SDS011;9402;51.460;7.276;2023-03-19T07:38:23;7.03;;;2.40;;
18544;SDS011;9402;51.460;7.276;2023-03-19T07:40:25;9.67;;;2.37;;
18544;SDS011;9402;51.460;7.276;2023-03-19T07:42:28;6.60;;;2.53;;
18544;SDS011;9402;51.460;7.276;2023-03-19T07:44:30;6.33;;;2.53;;
18544;SDS011;9402;51.460;7.276;2023-03-19T07:46:32;5.10;;;2.47;;
18544;SDS011;9402;51.460;7.276;2023-03-19T07:48:35;8.83;;;3.00;;
18544;SDS011;9402;51.460;7.276;2023-03-19T07:50:37;7.63;;;3.27;;
18544;SDS011;9402;51.460;7.276;2023-03-19T07:52:40;8.07;;;4.27;;
18544;SDS011;9402;51.460;7.276;2023-03-19T07:54:43;10.70;;;4.20;;
18544;SDS011;9402;51.460;7.276;2023-03-19T07:56:46;8.20;;;3.90;;
18544;SDS011;9402;51.460;7.276;2023-03-19T07:58:48;7.60;;;3.73;;
18544;SDS011;9402;51.460;7.276;2023-03-19T08:00:51;8.40;;;4.13;;
18544;SDS011;9402;51.460;7.276;2023-03-19T08:02:54;12.57;;;4.47;;
18544;SDS011;9402;51.460;7.276;2023-03-19T08:04:56;14.40;;;5.60;;
18544;SDS011;9402;51.460;7.276;2023-03-19T08:07:01;7.60;;;4.07;;
18544;SDS011;9402;51.460;7.276;2023-03-19T08:09:03;8.57;;;3.70;;
18544;SDS011;9402;51.460;7.276;2023-03-19T08:11:07;8.10;;;4.53;;
18544;SDS011;9402;51.460;7.276;2023-03-19T08:13:09;13.80;;;5.00;;
18544;SDS011;9402;51.460;7.276;2023-03-19T08:15:13;11.73;;;5.10;;
18544;SDS011;9402;51.460;7.276;2023-03-19T08:17:15;15.23;;;4.90;;
18544;SDS011;9402;51.460;7.276;2023-03-19T08:19:17;8.63;;;4.60;;
18544;SDS011;9402;51.460;7.276;2023-03-19T08:21:20;10.00;;;5.33;;
18544;SDS011;9402;51.460;7.276;2023-03-19T08:23:22;12.53;;;5.07;;
18544;SDS011;9402;51.460;7.276;2023-03-19T08:25:26;10.97;;;4.70;;
18544;SDS011;9402;51.460;7.276;2023-03-19T08:27:33;11.20;;;3.90;;
18544;SDS011;9402;51.460;7.276;2023-03-19T08:29:35;9.30;;;4.50;;
18544;SDS011;9402;51.460;7.276;2023-03-19T08:31:38;7.13;;;4.00;;
18544;SDS011;9402;51.460;7.276;2023-03-19T08:33:40;13.77;;;5.10;;
18544;SDS011;9402;51.460;7.276;2023-03-19T08:35:42;8.10;;;4.60;;
18544;SDS011;9402;51.460;7.276;2023-03-19T08:37:45;9.03;;;4.60;;
18544;SDS011;9402;51.460;7.276;2023-03-19T08:39:48;8.43;;;4.33;;
18544;SDS011;9402;51.460;7.276;2023-03-19T08:41:51;6.93;;;4.20;;
18544;SDS011;9402;51.460;7.276;2023-03-19T08:43:54;8.33;;;4.10;;
18544;SDS011;9402;51.460;7.276;2023-03-19T08:45:57;8.47;;;4.77;;
18544;SDS011;9402;51.460;7.276;2023-03-19T08:47:59;9.90;;;4.87;;
18544;SDS011;9402;51.460;7.276;2023-03-19T08:50:02;11.07;;;4.83;;
18544;SDS011;9402;51.460;7.276;2023-03-19T08:52:05;8.47;;;4.33;;
18544;SDS011;9402;51.460;7.276;2023-03-19T08:54:07;9.33;;;5.03;;
18544;SDS011;9402;51.460;7.276;2023-03-19T08:56:10;9.97;;;5.00;;
18544;SDS011;9402;51.460;7.276;2023-03-19T08:58:12;10.30;;;4.50;;
18544;SDS011;9402;51.460;7.276;2023-03-19T09:00:17;6.10;;;4.20;;
18544;SDS011;9402;51.460;7.276;2023-03-19T09:02:19;11.97;;;4.63;;
18544;SDS011;9402;51.460;7.276;2023-03-19T09:04:22;12.53;;;5.13;;
18544;SDS011;9402;51.460;7.276;2023-03-19T09:06:24;9.23;;;5.50;;
18544;SDS011;9402;51.460;7.276;2023-03-19T09:08:27;9.47;;;4.93;;
18544;SDS011;9402;51.460;7.276;2023-03-19T09:10:29;9.77;;;4.90;;
18544;SDS011;9402;51.460;7.276;2023-03-19T09:12:32;8.70;;;4.50;;
18544;SDS011;9402;51.460;7.276;2023-03-19T09:14:35;9.40;;;4.47;;
18544;SDS011;9402;51.460;7.276;2023-03-19T09:16:40;6.87;;;4.27;;
18544;SDS011;9402;51.460;7.276;2023-03-19T09:18:42;13.10;;;4.70;;
18544;SDS011;9402;51.460;7.276;2023-03-19T09:20:45;8.83;;;4.47;;
18544;SDS011;9402;51.460;7.276;2023-03-19T09:22:47;9.27;;;4.30;;
18544;SDS011;9402;51.460;7.276;2023-03-19T09:24:49;6.70;;;4.17;;
18544;SDS011;9402;51.460;7.276;2023-03-19T09:26:52;7.83;;;4.00;;
18544;SDS011;9402;51.460;7.276;2023-03-19T09:28:54;6.60;;;3.70;;
18544;SDS011;9402;51.460;7.276;2023-03-19T09:30:57;5.73;;;3.63;;
18544;SDS011;9402;51.460;7.276;2023-03-19T09:33:07;5.00;;;3.00;;
18544;SDS011;9402;51.460;7.276;2023-03-19T09:35:09;10.67;;;3.43;;
18544;SDS011;9402;51.460;7.276;2023-03-19T09:37:12;7.80;;;3.73;;
18544;SDS011;9402;51.460;7.276;2023-03-19T09:39:14;5.97;;;2.97;;
18544;SDS011;9402;51.460;7.276;2023-03-19T09:41:18;6.17;;;3.20;;
18544;SDS011;9402;51.460;7.276;2023-03-19T09:43:30;5.93;;;2.80;;
18544;SDS011;9402;51.460;7.276;2023-03-19T09:45:39;6.07;;;3.53;;
18544;SDS011;9402;51.460;7.276;2023-03-19T09:47:42;5.30;;;3.17;;
18544;SDS011;9402;51.460;7.276;2023-03-19T09:49:47;8.40;;;3.27;;
18544;SDS011;9402;51.460;7.276;2023-03-19T09:51:51;8.90;;;3.10;;
18544;SDS011;9402;51.460;7.276;2023-03-19T09:53:55;6.27;;;2.83;;
18544;SDS011;9402;51.460;7.276;2023-03-19T09:55:58;5.73;;;3.17;;
18544;SDS011;9402;51.460;7.276;2023-03-19T09:58:01;6.20;;;3.10;;
18544;SDS011;9402;51.460;7.276;2023-03-19T10:00:16;6.43;;;2.60;;
18544;SDS011;9402;51.460;7.276;2023-03-19T10:02:25;4.30;;;2.90;;
18544;SDS011;9402;51.460;7.276;2023-03-19T10:04:39;7.03;;;3.03;;
18544;SDS011;9402;51.460;7.276;2023-03-19T10:06:45;8.90;;;3.53;;
18544;SDS011;9402;51.460;7.276;2023-03-19T10:08:50;7.23;;;3.40;;
18544;SDS011;9402;51.460;7.276;2023-03-19T10:11:09;8.17;;;3.57;;
18544;SDS011;9402;51.460;7.276;2023-03-19T10:13:25;7.67;;;3.83;;
18544;SDS011;9402;51.460;7.276;2023-03-19T10:15:36;6.00;;;3.50;;
18544;SDS011;9402;51.460;7.276;2023-03-19T10:17:41;5.83;;;3.27;;
18544;SDS011;9402;51.460;7.276;2023-03-19T10:19:52;6.33;;;3.93;;
18544;SDS011;9402;51.460;7.276;2023-03-19T10:21:59;5.27;;;3.60;;
18544;SDS011;9402;51.460;7.276;2023-03-19T10:24:08;5.97;;;3.20;;
18544;SDS011;9402;51.460;7.276;2023-03-19T10:26:13;6.70;;;3.63;;
18544;SDS011;9402;51.460;7.276;2023-03-19T10:28:17;5.43;;;3.40;;
18544;SDS011;9402;51.460;7.276;2023-03-19T10:30:19;6.10;;;3.67;;
18544;SDS011;9402;51.460;7.276;2023-03-19T10:32:26;6.17;;;3.37;;
18544;SDS011;9402;51.460;7.276;2023-03-19T10:34:34;10.03;;;3.30;;
18544;SDS011;9402;51.460;7.276;2023-03-19T10:36:37;6.40;;;3.07;;
18544;SDS011;9402;51.460;7.276;2023-03-19T10:38:41;5.53;;;3.43;;
18544;SDS011;9402;51.460;7.276;2023-03-19T10:40:45;6.93;;;3.60;;
18544;SDS011;9402;51.460;7.276;2023-03-19T10:43:00;7.70;;;3.23;;
18544;SDS011;9402;51.460;7.276;2023-03-19T10:45:09;12.30;;;3.70;;
18544;SDS011;9402;51.460;7.276;2023-03-19T10:47:19;5.47;;;3.13;;
18544;SDS011;9402;51.460;7.276;2023-03-19T10:49:26;5.73;;;3.60;;
18544;SDS011;9402;51.460;7.276;2023-03-19T10:51:29;5.73;;;3.63;;
18544;SDS011;9402;51.460;7.276;2023-03-19T10:53:33;4.33;;;2.87;;
18544;SDS011;9402;51.460;7.276;2023-03-19T10:55:38;5.67;;;2.53;;
18544;SDS011;9402;51.460;7.276;2023-03-19T10:57:48;4.60;;;2.50;;
18544;SDS011;9402;51.460;7.276;2023-03-19T10:59:52;5.00;;;2.30;;
18544;SDS011;9402;51.460;7.276;2023-03-19T11:01:55;5.50;;;2.70;;
18544;SDS011;9402;51.460;7.276;2023-03-19T11:03:59;4.97;;;2.93;;
18544;SDS011;9402;51.460;7.276;2023-03-19T11:06:03;4.73;;;2.83;;
18544;SDS011;9402;51.460;7.276;2023-03-19T11:08:16;5.87;;;3.30;;
18544;SDS011;9402;51.460;7.276;2023-03-19T11:10:21;8.70;;;3.47;;
18544;SDS011;9402;51.460;7.276;2023-03-19T11:12:29;4.90;;;2.57;;
18544;SDS011;9402;51.460;7.276;2023-03-19T11:14:34;5.13;;;2.93;;
18544;SDS011;9402;51.460;7.276;2023-03-19T11:16:48;5.23;;;3.90;;
18544;SDS011;9402;51.460;7.276;2023-03-19T11:18:55;9.00;;;4.27;;
18544;SDS011;9402;51.460;7.276;2023-03-19T11:20:58;6.60;;;4.10;;
18544;SDS011;9402;51.460;7.276;2023-03-19T11:23:03;5.50;;;4.20;;
18544;SDS011;9402;51.460;7.276;2023-03-19T11:25:13;6.53;;;4.63;;
18544;SDS011;9402;51.460;7.276;2023-03-19T11:27:18;6.17;;;4.37;;
18544;SDS011;9402;51.460;7.276;2023-03-19T11:29:28;10.33;;;5.10;;
18544;SDS011;9402;51.460;7.276;2023-03-19T11:31:33;6.83;;;4.17;;
18544;SDS011;9402;51.460;7.276;2023-03-19T11:33:40;6.73;;;4.47;;
18544;SDS011;9402;51.460;7.276;2023-03-19T11:35:48;8.30;;;5.10;;
18544;SDS011;9402;51.460;7.276;2023-03-19T11:37:55;7.37;;;4.77;;
18544;SDS011;9402;51.460;7.276;2023-03-19T11:40:02;7.07;;;4.60;;
18544;SDS011;9402;51.460;7.276;2023-03-19T11:42:23;5.17;;;4.47;;
18544;SDS011;9402;51.460;7.276;2023-03-19T11:44:38;9.67;;;4.60;;
18544;SDS011;9402;51.460;7.276;2023-03-19T11:46:47;8.00;;;5.27;;
18544;SDS011;9402;51.460;7.276;2023-03-19T11:49:12;7.10;;;5.50;;
18544;SDS011;9402;51.460;7.276;2023-03-19T11:51:33;6.43;;;4.83;;
18544;SDS011;9402;51.460;7.276;2023-03-19T11:53:41;6.70;;;4.57;;
18544;SDS011;9402;51.460;7.276;2023-03-19T11:55:55;7.13;;;4.30;;
18544;SDS011;9402;51.460;7.276;2023-03-19T11:58:07;12.93;;;5.43;;
18544;SDS011;9402;51.460;7.276;2023-03-19T12:00:26;7.60;;;5.60;;
18544;SDS011;9402;51.460;7.276;2023-03-19T12:02:34;6.83;;;5.33;;
18544;SDS011;9402;51.460;7.276;2023-03-19T12:04:49;7.37;;;5.73;;
18544;SDS011;9402;51.460;7.276;2023-03-19T12:07:05;4.20;;;3.13;;
18544;SDS011;9402;51.460;7.276;2023-03-19T12:09:16;3.67;;;2.07;;
18544;SDS011;9402;51.460;7.276;2023-03-19T12:11:23;3.07;;;1.60;;
18544;SDS011;9402;51.460;7.276;2023-03-19T12:13:33;3.20;;;1.80;;
18544;SDS011;9402;51.460;7.276;2023-03-19T12:15:45;3.47;;;1.70;;
18544;SDS011;9402;51.460;7.276;2023-03-19T12:17:56;4.70;;;1.60;;
18544;SDS011;9402;51.460;7.276;2023-03-19T12:20:05;2.50;;;1.40;;
18544;SDS011;9402;51.460;7.276;2023-03-19T12:22:34;2.13;;;1.10;;
18544;SDS011;9402;51.460;7.276;2023-03-19T12:24:54;5.27;;;1.40;;
18544;SDS011;9402;51.460;7.276;2023-03-19T12:27:06;5.30;;;1.40;;
18544;SDS011;9402;51.460;7.276;2023-03-19T12:29:22;3.70;;;1.50;;
18544;SDS011;9402;51.460;7.276;2023-03-19T12:31:30;3.07;;;1.60;;
18544;SDS011;9402;51.460;7.276;2023-03-19T12:33:45;3.50;;;1.60;;
18544;SDS011;9402;51.460;7.276;2023-03-19T12:35:52;7.13;;;2.27;;
18544;SDS011;9402;51.460;7.276;2023-03-19T12:37:57;4.73;;;2.00;;